createdAt,value
2022-10-13T00:00:56.247Z,100.00
2022-10-13T00:03:22.872Z,100.00
2022-10-13T00:05:50.584Z,100.00
2022-10-13T00:08:20.527Z,100.00
2022-10-13T00:10:49.327Z,100.00
2022-10-13T00:13:20.060Z,100.00
2022-10-13T00:15:48.548Z,100.00
2022-10-13T00:18:16.067Z,100.00
2022-10-13T00:20:48.739Z,100.00
2022-10-13T00:23:16.703Z,100.00
2022-10-13T00:25:44.704Z,100.00
2022-10-13T00:28:12.178Z,100.00
2022-10-13T00:30:38.987Z,100.00
2022-10-13T00:33:06.554Z,100.00
2022-10-13T00:35:33.748Z,100.00
2022-10-13T00:38:00.297Z,100.00
2022-10-13T00:40:26.980Z,100.00
2022-10-13T00:42:53.571Z,100.00
2022-10-13T00:45:24.219Z,100.00
2022-10-13T00:47:56.517Z,100.00
2022-10-13T00:50:30.007Z,100.00
2022-10-13T00:52:57.983Z,100.00
2022-10-13T00:55:28.604Z,100.00
2022-10-13T00:57:56.155Z,100.00
2022-10-13T01:00:24.292Z,100.00
2022-10-13T01:02:51.537Z,100.00
2022-10-13T01:05:21.011Z,100.00
2022-10-13T01:07:49.876Z,100.00
2022-10-13T01:10:26.399Z,100.00
2022-10-13T01:12:57.256Z,100.00
2022-10-13T01:15:34.168Z,100.00
2022-10-13T01:18:05.826Z,100.00
2022-10-13T01:21:23.721Z,100.00
2022-10-13T01:24:08.206Z,100.00
2022-10-13T01:26:45.340Z,100.00
2022-10-13T01:29:50.684Z,100.00
2022-10-13T01:32:23.274Z,100.00
2022-10-13T01:34:59.839Z,100.00
2022-10-13T01:37:38.528Z,100.00
2022-10-13T01:40:29.029Z,100.00
2022-10-13T01:43:08.753Z,100.00
2022-10-13T01:45:50.874Z,100.00
2022-10-13T01:48:19.426Z,100.00
2022-10-13T01:50:48.322Z,100.00
2022-10-13T01:53:17.926Z,100.00
2022-10-13T01:55:53.017Z,100.00
2022-10-13T01:58:20.371Z,100.00
2022-10-13T02:00:56.103Z,100.00
2022-10-13T02:03:40.982Z,100.00
2022-10-13T02:06:21.193Z,100.00
2022-10-13T02:09:01.671Z,100.00
2022-10-13T02:11:28.241Z,100.00
2022-10-13T02:14:13.721Z,100.00
2022-10-13T02:16:43.243Z,100.00
2022-10-13T02:19:13.108Z,100.00
2022-10-13T02:21:41.327Z,100.00
2022-10-13T02:24:08.952Z,100.00
2022-10-13T02:26:38.335Z,100.00
2022-10-13T02:29:14.309Z,100.00
2022-10-13T02:31:42.067Z,100.00
2022-10-13T02:34:09.385Z,100.00
2022-10-13T02:36:37.882Z,100.00
2022-10-13T02:39:05.871Z,100.00
2022-10-13T02:41:32.454Z,100.00
2022-10-13T02:43:59.357Z,100.00
2022-10-13T02:46:26.050Z,100.00
2022-10-13T02:48:52.947Z,100.00
2022-10-13T02:51:19.456Z,100.00
2022-10-13T02:53:46.012Z,100.00
2022-10-13T02:56:12.557Z,100.00
2022-10-13T02:58:39.126Z,100.00
2022-10-13T03:01:11.182Z,100.00
2022-10-13T03:03:38.779Z,100.00
2022-10-13T03:06:05.879Z,100.00
2022-10-13T03:08:34.126Z,100.00
2022-10-13T03:11:01.191Z,100.00
2022-10-13T03:13:28.174Z,100.00
2022-10-13T03:15:54.713Z,100.00
2022-10-13T03:18:21.251Z,100.00
2022-10-13T03:20:56.926Z,100.00
2022-10-13T03:23:23.485Z,100.00
2022-10-13T03:25:50.013Z,100.00
2022-10-13T03:28:16.626Z,100.00
2022-10-13T03:30:43.207Z,100.00
2022-10-13T03:33:09.779Z,100.00
2022-10-13T03:35:36.849Z,100.00
2022-10-13T03:38:03.431Z,100.00
2022-10-13T03:40:30.185Z,100.00
2022-10-13T03:42:56.805Z,100.00
2022-10-13T03:45:23.332Z,100.00
2022-10-13T03:47:50.139Z,100.00
2022-10-13T03:50:16.714Z,100.00
2022-10-13T03:52:43.289Z,100.00
2022-10-13T03:55:10.244Z,100.00
2022-10-13T03:57:36.776Z,100.00
2022-10-13T04:00:04.109Z,100.00
2022-10-13T04:02:30.639Z,100.00
2022-10-13T04:04:57.185Z,100.00
2022-10-13T04:07:23.710Z,100.00
2022-10-13T04:09:50.341Z,100.00
2022-10-13T04:12:20.667Z,100.00
2022-10-13T04:14:47.864Z,100.00
2022-10-13T04:17:17.137Z,100.00
2022-10-13T04:19:43.735Z,100.00
2022-10-13T04:22:12.786Z,100.00
2022-10-13T04:24:39.445Z,100.00
2022-10-13T04:27:06.036Z,100.00
2022-10-13T04:29:32.665Z,100.00
2022-10-13T04:31:59.972Z,100.00
2022-10-13T04:34:26.532Z,100.00
2022-10-13T04:36:53.083Z,100.00
2022-10-13T04:39:19.700Z,100.00
2022-10-13T04:41:46.223Z,100.00
2022-10-13T04:44:12.809Z,100.00
2022-10-13T04:46:39.357Z,100.00
2022-10-13T04:49:05.891Z,100.00
2022-10-13T04:51:32.867Z,100.00
2022-10-13T04:54:05.597Z,100.00
2022-10-13T04:56:32.268Z,100.00
2022-10-13T04:58:59.862Z,100.00
2022-10-13T05:01:27.296Z,100.00
2022-10-13T05:03:59.727Z,100.00
2022-10-13T05:06:29.480Z,100.00
2022-10-13T05:08:57.043Z,100.00
2022-10-13T05:11:25.487Z,100.00
2022-10-13T05:13:52.586Z,100.00
2022-10-13T05:16:21.208Z,100.00
2022-10-13T05:18:48.872Z,100.00
2022-10-13T05:21:22.377Z,100.00
2022-10-13T05:23:49.282Z,100.00
2022-10-13T05:26:18.041Z,100.00
2022-10-13T05:28:45.202Z,100.00
2022-10-13T05:31:17.230Z,100.00
2022-10-13T05:33:44.779Z,100.00
2022-10-13T05:36:15.432Z,100.00
2022-10-13T05:38:42.533Z,100.00
2022-10-13T05:41:12.104Z,100.00
2022-10-13T05:43:40.360Z,100.00
2022-10-13T05:46:08.087Z,100.00
2022-10-13T05:48:35.446Z,100.00
2022-10-13T05:51:14.371Z,100.00
2022-10-13T05:53:49.605Z,100.00
2022-10-13T05:56:22.190Z,100.00
2022-10-13T05:58:53.642Z,100.00
2022-10-13T06:01:24.704Z,100.00
2022-10-13T06:03:54.750Z,100.00
2022-10-13T06:06:26.762Z,100.00
2022-10-13T06:08:55.637Z,100.00
2022-10-13T06:11:22.197Z,100.00
2022-10-13T06:13:48.731Z,100.00
2022-10-13T06:16:15.280Z,100.00
2022-10-13T06:18:41.838Z,100.00
2022-10-13T06:21:08.428Z,100.00
2022-10-13T06:23:34.974Z,100.00
2022-10-13T06:26:01.574Z,100.00
2022-10-13T06:28:28.157Z,100.00
2022-10-13T06:30:56.838Z,100.00
2022-10-13T06:33:24.651Z,100.00
2022-10-13T06:35:52.498Z,100.00
2022-10-13T06:38:19.773Z,100.00
2022-10-13T06:40:46.330Z,100.00
2022-10-13T06:43:12.898Z,100.00
2022-10-13T06:45:39.456Z,100.00
2022-10-13T06:48:06.164Z,100.00
2022-10-13T06:50:33.214Z,100.00
2022-10-13T06:53:00.041Z,100.00
2022-10-13T06:55:26.983Z,100.00
2022-10-13T06:57:53.547Z,100.00
2022-10-13T07:00:20.561Z,100.00
2022-10-13T07:02:50.727Z,100.00
2022-10-13T07:05:17.424Z,100.00
2022-10-13T07:07:44.133Z,100.00
2022-10-13T07:10:10.692Z,99.04
2022-10-13T07:12:39.532Z,100.00
2022-10-13T07:15:06.485Z,100.00
2022-10-13T07:17:33.091Z,97.31
2022-10-13T07:20:01.323Z,95.81
2022-10-13T07:22:32.093Z,95.86
2022-10-13T07:24:58.741Z,94.26
2022-10-13T07:27:25.584Z,94.59
2022-10-13T07:29:52.267Z,92.18
2022-10-13T07:32:18.848Z,91.52
2022-10-13T07:34:45.409Z,89.12
2022-10-13T07:37:11.941Z,86.14
2022-10-13T07:39:38.483Z,86.79
2022-10-13T07:42:05.085Z,84.92
2022-10-13T07:44:31.605Z,86.05
2022-10-13T07:46:58.127Z,85.81
2022-10-13T07:49:24.725Z,87.28
2022-10-13T07:51:51.319Z,86.37
2022-10-13T07:54:21.464Z,82.12
2022-10-13T07:56:56.061Z,80.92
2022-10-13T07:59:25.932Z,79.66
2022-10-13T08:01:53.252Z,79.46
2022-10-13T08:04:19.972Z,80.54
2022-10-13T08:06:46.649Z,79.60
2022-10-13T08:09:13.473Z,78.90
2022-10-13T08:11:40.000Z,76.01
2022-10-13T08:14:06.545Z,74.05
2022-10-13T08:16:33.360Z,75.28
2022-10-13T08:18:59.997Z,75.65
2022-10-13T08:21:56.407Z,74.14
2022-10-13T08:24:16.514Z,70.21
2022-10-13T08:26:45.232Z,71.89
2022-10-13T08:29:28.422Z,70.59
2022-10-13T08:31:55.658Z,67.99
2022-10-13T08:34:23.300Z,69.11
2022-10-13T08:36:53.340Z,66.28
2022-10-13T08:39:21.060Z,64.25
2022-10-13T08:41:48.027Z,63.77
2022-10-13T08:45:06.242Z,64.16
2022-10-13T08:47:35.586Z,65.80
2022-10-13T08:50:10.620Z,61.55
2022-10-13T08:52:57.560Z,62.57
2022-10-13T08:55:47.641Z,60.36
2022-10-13T08:58:19.967Z,61.95
2022-10-13T09:00:46.582Z,60.32
2022-10-13T09:03:18.955Z,60.33
2022-10-13T09:06:11.513Z,64.20
2022-10-13T09:08:51.330Z,58.15
2022-10-13T09:11:18.503Z,60.07
2022-10-13T09:13:45.079Z,58.82
2022-10-13T09:16:11.693Z,59.10
2022-10-13T09:18:38.564Z,58.71
2022-10-13T09:21:26.018Z,59.31
2022-10-13T09:23:54.188Z,59.56
2022-10-13T09:26:23.799Z,55.52
2022-10-13T09:28:51.992Z,55.48
2022-10-13T09:31:23.455Z,52.49
2022-10-13T09:34:13.232Z,54.54
2022-10-13T09:36:39.887Z,54.19
2022-10-13T09:39:16.038Z,54.97
2022-10-13T09:41:43.897Z,55.24
2022-10-13T09:44:13.717Z,57.61
2022-10-13T09:46:52.760Z,55.52
2022-10-13T09:49:41.268Z,53.18
2022-10-13T09:52:18.149Z,52.64
2022-10-13T09:54:48.299Z,51.68
2022-10-13T09:57:18.880Z,52.54
2022-10-13T10:00:11.147Z,51.89
2022-10-13T10:02:45.331Z,50.04
2022-10-13T10:05:27.053Z,51.48
2022-10-13T10:08:00.285Z,50.33
2022-10-13T10:10:33.242Z,47.61
2022-10-13T10:13:04.005Z,48.84
2022-10-13T10:15:46.755Z,47.58
2022-10-13T10:18:19.812Z,45.10
2022-10-13T10:21:09.771Z,46.30
2022-10-13T10:23:54.786Z,49.00
2022-10-13T10:26:34.968Z,45.44
2022-10-13T10:29:19.570Z,45.76
2022-10-13T10:32:21.385Z,46.74
2022-10-13T10:34:53.585Z,45.45
2022-10-13T10:37:38.847Z,48.52
2022-10-13T10:40:35.061Z,48.07
2022-10-13T10:43:16.645Z,46.52
2022-10-13T10:45:44.790Z,50.70
2022-10-13T10:48:24.798Z,48.67
2022-10-13T10:50:53.280Z,48.15
2022-10-13T10:53:41.234Z,45.69
2022-10-13T10:56:32.610Z,45.05
2022-10-13T10:59:37.611Z,43.70
2022-10-13T11:02:06.921Z,47.00
2022-10-13T11:04:33.493Z,44.78
2022-10-13T11:07:00.047Z,43.08
2022-10-13T11:09:59.182Z,42.85
2022-10-13T11:12:45.051Z,39.94
2022-10-13T11:15:15.836Z,38.23
2022-10-13T11:17:42.853Z,39.72
2022-10-13T11:20:21.671Z,41.00
2022-10-13T11:23:00.250Z,41.07
2022-10-13T11:25:46.103Z,40.26
2022-10-13T11:28:21.929Z,38.65
2022-10-13T11:30:55.265Z,34.59
2022-10-13T11:33:48.250Z,38.28
2022-10-13T11:36:55.712Z,41.22
2022-10-13T11:39:26.662Z,39.84
2022-10-13T11:42:10.468Z,41.35
2022-10-13T11:44:54.580Z,37.76
2022-10-13T11:47:36.069Z,39.23
2022-10-13T11:50:21.063Z,38.95
2022-10-13T11:53:12.443Z,37.09
2022-10-13T11:55:54.540Z,39.78
2022-10-13T11:58:24.983Z,38.81
2022-10-13T12:01:15.570Z,39.91
2022-10-13T12:03:45.037Z,40.98
2022-10-13T12:06:34.285Z,41.11
2022-10-13T12:09:03.990Z,42.43
2022-10-13T12:11:33.849Z,38.76
2022-10-13T12:14:01.028Z,40.88
2022-10-13T12:16:29.241Z,40.06
2022-10-13T12:19:18.939Z,40.94
2022-10-13T12:21:56.429Z,38.09
2022-10-13T12:24:25.640Z,40.35
2022-10-13T12:26:53.121Z,40.02
2022-10-13T12:29:24.052Z,42.02
2022-10-13T12:31:51.349Z,41.71
2022-10-13T12:34:24.710Z,41.20
2022-10-13T12:37:02.010Z,42.24
2022-10-13T12:39:30.959Z,44.19
2022-10-13T12:41:58.515Z,44.85
2022-10-13T12:44:28.166Z,43.44
2022-10-13T12:46:58.693Z,44.58
2022-10-13T12:49:26.460Z,42.08
2022-10-13T12:52:14.788Z,41.87
2022-10-13T12:54:48.560Z,47.26
2022-10-13T12:57:35.067Z,47.79
2022-10-13T13:00:19.545Z,45.05
2022-10-13T13:03:03.513Z,44.34
2022-10-13T13:05:31.169Z,46.97
2022-10-13T13:07:58.280Z,44.88
2022-10-13T13:10:25.098Z,42.92
2022-10-13T13:12:53.854Z,40.63
2022-10-13T13:15:41.192Z,42.09
2022-10-13T13:18:26.446Z,40.37
2022-10-13T13:20:54.114Z,41.58
2022-10-13T13:23:22.201Z,40.73
2022-10-13T13:26:04.026Z,41.03
2022-10-13T13:28:32.577Z,40.40
2022-10-13T13:31:01.897Z,42.27
2022-10-13T13:33:28.875Z,44.46
2022-10-13T13:35:55.533Z,43.25
2022-10-13T13:38:22.277Z,44.59
2022-10-13T13:40:48.871Z,45.72
2022-10-13T13:43:15.475Z,42.85
2022-10-13T13:45:42.197Z,42.87
2022-10-13T13:48:12.028Z,44.03
2022-10-13T13:50:38.759Z,47.25
2022-10-13T13:53:06.136Z,45.41
2022-10-13T13:55:32.860Z,44.04
2022-10-13T13:57:59.418Z,45.03
2022-10-13T14:00:26.112Z,43.80
2022-10-13T14:02:52.647Z,42.87
2022-10-13T14:05:19.237Z,44.94
2022-10-13T14:07:45.839Z,47.94
2022-10-13T14:10:12.417Z,49.31
2022-10-13T14:12:39.239Z,50.60
2022-10-13T14:15:07.615Z,50.66
2022-10-13T14:17:34.147Z,52.22
2022-10-13T14:20:00.719Z,54.61
2022-10-13T14:22:50.397Z,54.04
2022-10-13T14:25:17.192Z,56.28
2022-10-13T14:27:45.790Z,57.84
2022-10-13T14:30:15.835Z,58.14
2022-10-13T14:32:42.891Z,60.21
2022-10-13T14:35:29.495Z,60.14
2022-10-13T14:37:56.278Z,60.57
2022-10-13T14:40:22.972Z,61.94
2022-10-13T14:42:49.990Z,62.81
2022-10-13T14:45:16.952Z,64.78
2022-10-13T14:47:43.694Z,64.28
2022-10-13T14:50:10.580Z,63.26
2022-10-13T14:52:37.197Z,63.97
2022-10-13T14:55:04.081Z,64.19
2022-10-13T14:57:30.613Z,63.74
2022-10-13T15:00:01.670Z,65.92
2022-10-13T15:02:28.848Z,66.51
2022-10-13T15:04:55.388Z,68.37
2022-10-13T15:07:22.276Z,66.82
2022-10-13T15:10:04.175Z,67.34
2022-10-13T15:12:32.304Z,67.35
2022-10-13T15:14:58.882Z,67.12
2022-10-13T15:17:27.988Z,68.91
2022-10-13T15:19:54.557Z,69.34
2022-10-13T15:22:21.387Z,72.60
2022-10-13T15:24:48.192Z,71.10
2022-10-13T15:27:14.828Z,72.40
2022-10-13T15:29:41.363Z,73.42
2022-10-13T15:32:17.989Z,76.44
2022-10-13T15:34:45.263Z,77.10
2022-10-13T15:37:12.407Z,78.54
2022-10-13T15:39:38.983Z,79.36
2022-10-13T15:42:05.793Z,80.87
2022-10-13T15:44:51.146Z,81.96
2022-10-13T15:47:18.932Z,83.50
2022-10-13T15:49:45.582Z,85.22
2022-10-13T15:52:12.464Z,86.93
2022-10-13T15:54:39.051Z,88.31
2022-10-13T15:57:05.616Z,89.48
2022-10-13T15:59:32.145Z,90.89
2022-10-13T16:01:58.731Z,92.49
2022-10-13T16:04:25.320Z,93.70
2022-10-13T16:06:51.920Z,95.66
2022-10-13T16:09:18.446Z,96.79
2022-10-13T16:11:45.320Z,97.77
2022-10-13T16:14:11.879Z,100.00
2022-10-13T16:16:38.411Z,100.00
2022-10-13T16:19:05.009Z,100.00
2022-10-13T16:21:31.594Z,100.00
2022-10-13T16:23:59.454Z,100.00
2022-10-13T16:26:26.111Z,100.00
2022-10-13T16:28:56.254Z,100.00
2022-10-13T16:31:23.098Z,100.00
2022-10-13T16:33:50.107Z,100.00
2022-10-13T16:36:18.806Z,100.00
2022-10-13T16:38:46.937Z,100.00
2022-10-13T16:41:16.127Z,100.00
2022-10-13T16:43:43.841Z,100.00
2022-10-13T16:46:15.234Z,100.00
2022-10-13T16:48:42.916Z,100.00
2022-10-13T16:51:13.397Z,100.00
2022-10-13T16:53:40.562Z,100.00
2022-10-13T16:56:07.833Z,100.00
2022-10-13T16:58:35.554Z,100.00
2022-10-13T17:01:08.669Z,100.00
2022-10-13T17:03:36.963Z,100.00
2022-10-13T17:06:03.895Z,100.00
2022-10-13T17:08:31.398Z,100.00
2022-10-13T17:11:00.225Z,100.00
2022-10-13T17:13:26.964Z,100.00
2022-10-13T17:15:55.305Z,100.00
2022-10-13T17:18:22.158Z,100.00
2022-10-13T17:20:53.653Z,100.00
2022-10-13T17:23:21.000Z,100.00
2022-10-13T17:25:48.167Z,100.00
2022-10-13T17:28:18.714Z,100.00
2022-10-13T17:31:05.455Z,100.00
2022-10-13T17:33:34.293Z,100.00
2022-10-13T17:36:02.975Z,100.00
2022-10-13T17:38:29.924Z,100.00
2022-10-13T17:41:01.381Z,100.00
2022-10-13T17:43:29.167Z,100.00
2022-10-13T17:46:12.166Z,100.00
2022-10-13T17:48:45.587Z,100.00
2022-10-13T17:51:15.018Z,100.00
2022-10-13T17:53:43.302Z,100.00
2022-10-13T17:56:16.187Z,100.00
2022-10-13T17:58:46.181Z,100.00
2022-10-13T18:01:28.173Z,100.00
2022-10-13T18:03:57.580Z,100.00
2022-10-13T18:06:25.015Z,100.00
2022-10-13T18:08:52.046Z,100.00
2022-10-13T18:11:21.520Z,100.00
2022-10-13T18:13:48.589Z,100.00
2022-10-13T18:16:21.171Z,100.00
2022-10-13T18:18:50.078Z,100.00
2022-10-13T18:21:19.278Z,100.00
2022-10-13T18:23:45.870Z,100.00
2022-10-13T18:26:15.385Z,100.00
2022-10-13T18:28:43.786Z,100.00
2022-10-13T18:31:13.242Z,100.00
2022-10-13T18:33:40.416Z,100.00
2022-10-13T18:36:23.463Z,100.00
2022-10-13T18:38:51.362Z,100.00
2022-10-13T18:41:19.306Z,100.00
2022-10-13T18:43:45.916Z,100.00
2022-10-13T18:46:12.750Z,100.00
2022-10-13T18:48:40.659Z,100.00
2022-10-13T18:51:13.808Z,100.00
2022-10-13T18:54:10.900Z,100.00
2022-10-13T18:56:38.238Z,100.00
2022-10-13T18:59:07.317Z,100.00
2022-10-13T19:01:35.950Z,100.00
2022-10-13T19:04:03.783Z,100.00
2022-10-13T19:06:32.281Z,100.00
2022-10-13T19:09:07.298Z,100.00
2022-10-13T19:11:34.760Z,100.00
2022-10-13T19:14:02.362Z,100.00
2022-10-13T19:16:30.833Z,100.00
2022-10-13T19:18:57.829Z,100.00
2022-10-13T19:21:24.820Z,100.00
2022-10-13T19:23:51.862Z,100.00
2022-10-13T19:26:26.110Z,100.00
2022-10-13T19:29:00.541Z,100.00
2022-10-13T19:31:29.068Z,100.00
2022-10-13T19:33:56.303Z,100.00
2022-10-13T19:36:27.804Z,100.00
2022-10-13T19:38:54.826Z,100.00
2022-10-13T19:41:21.567Z,100.00
2022-10-13T19:43:49.144Z,100.00
2022-10-13T19:46:16.020Z,100.00
2022-10-13T19:48:43.298Z,100.00
2022-10-13T19:51:10.584Z,100.00
2022-10-13T19:53:40.147Z,100.00
2022-10-13T19:56:07.299Z,100.00
2022-10-13T19:58:34.882Z,100.00
2022-10-13T20:01:05.861Z,100.00
2022-10-13T20:03:32.760Z,100.00
2022-10-13T20:06:02.967Z,100.00
2022-10-13T20:08:29.608Z,100.00
2022-10-13T20:10:56.148Z,100.00
2022-10-13T20:13:25.827Z,100.00
2022-10-13T20:15:55.487Z,100.00
2022-10-13T20:18:22.205Z,100.00
2022-10-13T20:20:48.911Z,100.00
2022-10-13T20:23:15.504Z,100.00
2022-10-13T20:25:42.034Z,100.00
2022-10-13T20:28:08.613Z,100.00
2022-10-13T20:31:22.611Z,100.00
2022-10-13T20:33:54.719Z,100.00
2022-10-13T20:36:22.026Z,100.00
2022-10-13T20:38:49.252Z,100.00
2022-10-13T20:41:21.972Z,100.00
2022-10-13T20:43:49.798Z,100.00
2022-10-13T20:46:19.457Z,100.00
2022-10-13T20:49:09.323Z,100.00
2022-10-13T20:51:33.036Z,100.00
2022-10-13T20:53:59.673Z,100.00
2022-10-13T20:56:27.538Z,100.00
2022-10-13T20:58:54.559Z,100.00
2022-10-13T21:01:24.107Z,100.00
2022-10-13T21:03:55.132Z,100.00
2022-10-13T21:06:25.557Z,100.00
2022-10-13T21:08:55.396Z,100.00
2022-10-13T21:11:23.316Z,100.00
2022-10-13T21:13:51.259Z,100.00
2022-10-13T21:16:21.520Z,100.00
2022-10-13T21:18:49.743Z,100.00
2022-10-13T21:21:18.649Z,100.00
2022-10-13T21:23:46.086Z,100.00
2022-10-13T21:26:16.261Z,100.00
2022-10-13T21:28:45.549Z,100.00
2022-10-13T21:31:15.017Z,100.00
2022-10-13T21:33:42.778Z,100.00
2022-10-13T21:36:12.953Z,100.00
2022-10-13T21:38:40.748Z,100.00
2022-10-13T21:41:09.563Z,100.00
2022-10-13T21:43:36.442Z,100.00
2022-10-13T21:46:13.261Z,100.00
2022-10-13T21:48:40.159Z,100.00
2022-10-13T21:51:12.508Z,100.00
2022-10-13T21:53:39.155Z,100.00
2022-10-13T21:56:07.085Z,100.00
2022-10-13T21:58:34.501Z,100.00
2022-10-13T22:01:02.148Z,100.00
2022-10-13T22:03:28.888Z,100.00
2022-10-13T22:05:55.551Z,100.00
2022-10-13T22:08:37.391Z,100.00
2022-10-13T22:11:05.395Z,100.00
2022-10-13T22:13:32.554Z,100.00
2022-10-13T22:16:11.290Z,100.00
2022-10-13T22:18:37.826Z,100.00
2022-10-13T22:21:07.344Z,100.00
2022-10-13T22:23:34.362Z,100.00
2022-10-13T22:26:02.289Z,100.00
2022-10-13T22:28:32.307Z,100.00
2022-10-13T22:31:10.210Z,100.00
2022-10-13T22:33:38.163Z,100.00
2022-10-13T22:36:08.972Z,100.00
2022-10-13T22:38:36.333Z,100.00
2022-10-13T22:41:05.159Z,100.00
2022-10-13T22:43:32.359Z,100.00
2022-10-13T22:45:59.052Z,100.00
2022-10-13T22:48:25.640Z,100.00
2022-10-13T22:50:52.294Z,100.00
2022-10-13T22:53:19.057Z,100.00
2022-10-13T22:55:45.610Z,100.00
2022-10-13T22:58:12.488Z,100.00
2022-10-13T23:00:39.778Z,100.00
2022-10-13T23:03:06.372Z,100.00
2022-10-13T23:05:33.016Z,100.00
2022-10-13T23:07:59.602Z,100.00
2022-10-13T23:10:26.193Z,100.00
2022-10-13T23:12:52.738Z,100.00
2022-10-13T23:15:19.311Z,100.00
2022-10-13T23:17:45.912Z,100.00
2022-10-13T23:20:12.647Z,100.00
2022-10-13T23:22:39.256Z,100.00
2022-10-13T23:25:06.138Z,100.00
2022-10-13T23:27:32.775Z,100.00
2022-10-13T23:29:59.349Z,100.00
2022-10-13T23:32:25.936Z,100.00
2022-10-13T23:34:52.512Z,100.00
2022-10-13T23:37:19.268Z,100.00
2022-10-13T23:39:46.077Z,100.00
2022-10-13T23:42:12.655Z,100.00
2022-10-13T23:44:39.244Z,100.00
2022-10-13T23:47:05.858Z,100.00
2022-10-13T23:49:32.424Z,100.00
2022-10-13T23:51:58.966Z,100.00
2022-10-13T23:54:25.512Z,100.00
2022-10-13T23:56:52.085Z,100.00
2022-10-13T23:59:18.662Z,100.00
